Sarah Desgagnes — XJAB — position and weather

sailwx.info

Track history (hours):
 
Tides and Currents Weather Stations Pressure Air Temp Water Temp Dewpoint Dewpoint Depression Visibility Wind Speed Wind Dir Waves Ship Positions

Sarah Desgagnes

Last reported at 2017-Nov-24 07:00 UTC. Time now 2017-Nov-24 07:35 UTC.
Position N 43°24' W 079°42'.

Length 147 m; draft 7.9 m.

Type: Ship. MMSI: 316012308.

Wind from 240 at 8 knots

Barometer 1013.8 mb
Air temperature 3.7 ° C
Dewpoint 3.2 ° C

Date/timePositionNaut miles runAvg speedWind from/ knotsBaromVisibWave heightAir tempDewpointWater temp
2017-Nov-24 07:00N 43°24' W 079°42'0 0.0 240 / 81013.8 3.7 3.2
2017-Nov-24 06:00N 43°24' W 079°42'0 0.0 250 / 91014.2 3.8 3.0
2017-Nov-24 05:00N 43°24' W 079°42'0 0.0 250 / 141014.1 4.1 3.2
2017-Nov-24 04:00N 43°24' W 079°42'17 8.7 260 / 151014.3 4.1 3.4
2017-Nov-24 02:00N 43°24' W 079°18'1818.4 270 / 201013.1 4.4 4.3 7.4
2017-Nov-24 01:00N 43°30' W 078°54'4912.3 240 / 231012.7 4.9 4.8 9.2
2017-Nov-23 21:00N 43°42' W 077°48'1313.0 230 / 171013.2 3.2 3.1 8.7
2017-Nov-23 20:00N 43°42' W 077°30'1414.3 240 / 191013.6 3.1 2.910.3
2017-Nov-23 19:00N 43°48' W 077°12'1313.0 240 / 211014.2 2.8 2.711.0
2017-Nov-23 18:00N 43°48' W 076°54'1110.5 240 / 211014.8 2.9 2.810.4
2017-Nov-23 17:00N 43°54' W 076°42'1817.7 250 / 151016.4 2.7 2.610.8
2017-Nov-23 16:00N 44°06' W 076°24'1010.5 220 / 131017.5 1.0 1.010.2
2017-Nov-23 15:00N 44°12' W 076°12'1010.5 170 / 81019.2 -2.8-2.9 9.6
2017-Nov-23 14:00N 44°18' W 076°00'7 7.4 160 / 51020.0 -3.8-3.9 9.6
2017-Nov-23 13:00N 44°24' W 075°54'1010.5 170 / 7 -4.7-4.8 9.5
2017-Nov-23 12:00N 44°30' W 075°42'1312.7 180 / 7 -5.3-5.5 9.0
2017-Nov-23 11:00N 44°42' W 075°36'1010.4 170 / 8 -5.7-5.8 9.0
2017-Nov-23 10:00N 44°48' W 075°24'14 7.1 270 / 6 -5.9-6.0 9.1
2017-Nov-23 08:00N 44°54' W 075°06'9 8.5 290 / 9 -6.4-6.5 8.8
2017-Nov-23 07:00N 44°54' W 074°54'4 4.3 300 / 9 -5.7-5.9 8.2
2017-Nov-23 06:00N 44°54' W 074°48'0 0.0 290 / 8 -5.7-6.1 6.8
2017-Nov-23 05:00N 44°54' W 074°48'0 0.0 300 / 9 -5.1-5.5 6.3
2017-Nov-23 04:00N 44°54' W 074°48'7 7.4 290 / 7 -4.9-5.8 4.8
2017-Nov-23 03:00N 45°00' W 074°42'1010.4 310 / 12 -4.3-5.2 8.8
2017-Nov-23 02:00N 45°06' W 074°30'7 7.3 290 / 10 -3.5-3.6 8.8
2017-Nov-23 01:00N 45°12' W 074°24'511.3 300 / 18 -2.9-3.0 8.6
2017-Nov-23 00:35N 45°13' W 074°18'111.9
2017-Nov-23 00:30N 45°13' W 074°16'510.5
2017-Nov-23 00:00N 45°14' W 074°09'31670.6
2017-Nov-23 00:00N 45°12' W 074°06'2 4.6 300 / 18 -2.4-2.5 8.5
2017-Nov-22 23:30N 45°13' W 074°03'4 8.5
2017-Nov-22 23:00N 45°15' W 073°58'4305.1
2017-Nov-22 23:00N 45°18' W 073°54'1 2.4 280 / 15 -1.1-1.2 8.5
2017-Nov-22 22:30N 45°18' W 073°56'0 0.7
2017-Nov-22 22:00N 45°18' W 073°55'168.8
2017-Nov-22 22:00N 45°18' W 073°54'1 2.6 280 / 8 0.1-0.0 8.1
2017-Nov-22 21:30N 45°19' W 073°55'1 1.6
2017-Nov-22 21:00N 45°20' W 073°55'2108.3
2017-Nov-22 21:00N 45°18' W 073°54'510.3 300 / 20 1.0 1.0 7.3
2017-Nov-22 20:30N 45°22' W 073°50'510.2
2017-Nov-22 20:00N 45°24' W 073°43'167.2
2017-Nov-22 20:00N 45°24' W 073°42'2 4.3 300 / 17 2.1 2.2 6.4
2017-Nov-22 19:30N 45°24' W 073°39'2 4.3
2017-Nov-22 19:00N 45°24' W 073°36'4 4.2 280 / 11 3.1 3.1 5.9
2017-Nov-22 18:00N 45°24' W 073°30'6 6.0 270 / 13 2.9 3.0 5.5
2017-Nov-22 17:00N 45°30' W 073°30'0 0.0 250 / 8 3.1 3.2 6.0
2017-Nov-22 16:00N 45°30' W 073°30'6 6.0 260 / 7 2.7 2.8 5.6
2017-Nov-22 15:00N 45°36' W 073°30'0 0.0 260 / 9 2.8 2.9
2017-Nov-22 14:00N 45°36' W 073°30'0 0.0 270 / 6 2.6 2.7
2017-Nov-22 13:00N 45°36' W 073°30'0 0.0 270 / 8 2.8 2.9
2017-Nov-22 12:00N 45°36' W 073°30'0 0.0 280 / 7 3.8 3.8
2017-Nov-22 11:00N 45°36' W 073°30'0 0.0 260 / 6 4.8 4.9
2017-Nov-22 09:00N 45°36' W 073°30'0 0.0 250 / 4 6.1 6.1
2017-Nov-22 08:00N 45°36' W 073°30'0 0.0 210 / 4 6.9 6.8
2017-Nov-22 07:00N 45°36' W 073°30'0 0.0 280 / 3 7.4 6.9
2017-Nov-22 06:00N 45°36' W 073°30'0 0.0 230 / 6 9.4 7.0
2017-Nov-22 05:00N 45°36' W 073°30'0 0.0 220 / 8 9.7 6.6
2017-Nov-22 04:00N 45°36' W 073°30'0 0.0 180 / 10 8.5 5.8
2017-Nov-22 03:00N 45°36' W 073°30'0 0.0 180 / 9 7.4 5.7
2017-Nov-22 02:00N 45°36' W 073°30'0 0.0 170 / 11 7.1 5.7
2017-Nov-22 01:00N 45°36' W 073°30'0 0.0 180 / 11 7.6 5.9
2017-Nov-22 00:00N 45°36' W 073°30'0 0.0 190 / 10 7.9 5.9
2017-Nov-21 23:00N 45°36' W 073°30'0 0.0 190 / 9 8.0 6.8
2017-Nov-21 22:00N 45°36' W 073°30'0 0.0 180 / 10 8.7 7.5
2017-Nov-21 21:00N 45°36' W 073°30'0 0.0 180 / 7 8.6 7.6
2017-Nov-21 20:00N 45°36' W 073°30'0 0.0 180 / 10 8.6 7.8
2017-Nov-21 19:00N 45°36' W 073°30'0 0.0 180 / 10 8.0 7.3
2017-Nov-21 18:00N 45°36' W 073°30'0 0.0 190 / 12 7.4 7.3
2017-Nov-21 17:00N 45°36' W 073°30'0 0.0 180 / 14 6.6 6.5
2017-Nov-21 16:00N 45°36' W 073°30'0 0.0 190 / 12 5.7 5.6
2017-Nov-21 15:00N 45°36' W 073°30'0 0.0 180 / 14 5.0 5.0
2017-Nov-21 14:00N 45°36' W 073°30'0 0.0 180 / 12 3.8 3.8
2017-Nov-21 13:00N 45°36' W 073°30'0 0.0 160 / 10 1.4 1.5
2017-Nov-21 12:00N 45°36' W 073°30'0 0.0 070 / 4 -2.9-2.9
2017-Nov-21 10:00N 45°36' W 073°30'0 0.0 070 / 6 -3.5-3.6
2017-Nov-21 09:00N 45°36' W 073°30'0 0.0 100 / 6 -3.9-4.0
2017-Nov-21 08:00N 45°36' W 073°30'0 0.0 110 / 5 -4.2-4.2
2017-Nov-21 07:00N 45°36' W 073°30'0 0.0 120 / 6 -4.9-4.9
2017-Nov-21 06:00N 45°36' W 073°30'0 0.0 150 / 9 -5.1-5.1
2017-Nov-21 05:00N 45°36' W 073°30'0 0.0 160 / 7 -5.8-5.8
2017-Nov-21 04:00N 45°36' W 073°30'0 0.0 150 / 5 -6.4-6.4
2017-Nov-21 03:00N 45°36' W 073°30'0 0.0 150 / 7 -6.2-6.4
2017-Nov-21 02:00N 45°36' W 073°30'0 0.0 130 / 6 -5.9-6.3
2017-Nov-21 01:00N 45°36' W 073°30'0 0.0 210 / 3 -5.5-7.4
2017-Nov-21 00:00N 45°36' W 073°30'6 6.0 260 / 3 -5.3-7.0 6.8
2017-Nov-20 23:00N 45°30' W 073°30'0 0.0 270 / 7 -4.9-6.4
2017-Nov-20 22:00N 45°30' W 073°30'7 7.3 290 / 8 -5.0-5.6 5.6
2017-Nov-20 21:00N 45°24' W 073°36'0 0.0 310 / 7 -5.9-6.1
2017-Nov-20 20:00N 45°24' W 073°36'8 8.4 310 / 8 -5.4-5.6 5.8
2017-Nov-20 19:00N 45°24' W 073°48'7 7.3 300 / 11 -5.7-5.9 7.4
2017-Nov-20 18:00N 45°18' W 073°54'0 0.0 280 / 13 -5.6-5.9
2017-Nov-20 17:00N 45°18' W 073°54'0 0.0 310 / 6 -5.7-5.9 8.0
2017-Nov-20 16:00N 45°18' W 073°54'1010.4 270 / 13 -5.8-6.0 7.9
2017-Nov-20 15:00N 45°12' W 074°06'8 8.5 270 / 16 -4.5-4.8 7.9
2017-Nov-20 14:00N 45°12' W 074°18'1010.4 260 / 24 -5.9-6.0 8.0
2017-Nov-20 13:00N 45°06' W 074°30'17 8.7 260 / 12 -6.2-6.3 8.6
2017-Nov-20 11:00N 44°54' W 074°48'4 4.3 280 / 14 -6.5-6.6 6.4
2017-Nov-20 10:00N 44°54' W 074°54'0 0.0 270 / 13 -5.0-5.1
2017-Nov-20 09:00N 44°54' W 074°54'4 4.3 290 / 13 -6.0-6.0 8.6
2017-Nov-20 08:00N 44°54' W 075°00'0 0.0 310 / 10 -5.3-5.3
2017-Nov-20 07:00N 44°54' W 075°00'0 0.0 310 / 14 -4.8-4.8
2017-Nov-20 06:00N 44°54' W 075°00'0 0.0 310 / 14 -3.4-3.3
2017-Nov-20 05:00N 44°54' W 075°00'0 0.0 280 / 13 -2.7-2.7
2017-Nov-20 04:00N 44°54' W 075°00'0 0.0 290 / 10 -2.5-2.5
2017-Nov-20 03:00N 44°54' W 075°00'0 0.0 290 / 10 -2.4-2.4
2017-Nov-20 02:00N 44°54' W 075°00'0 0.0 300 / 13 -2.3-2.3
2017-Nov-20 01:00N 44°54' W 075°00'0 0.0 290 / 15 -1.7-1.7
2017-Nov-20 00:00N 44°54' W 075°00'0 0.0 290 / 17 -1.3-1.3
2017-Nov-19 23:00N 44°54' W 075°00'9 8.5 280 / 16 -0.9-0.8 9.6
2017-Nov-19 22:00N 44°54' W 075°12'7 7.4 280 / 11 -0.7-0.6 9.6
2017-Nov-19 21:00N 44°48' W 075°18'0 0.0 280 / 8 -1.0-0.9 9.2
2017-Nov-19 20:00N 44°48' W 075°18'1010.4 270 / 8 -0.6-0.5 9.8
2017-Nov-19 19:00N 44°42' W 075°30'2512.4 260 / 10 -0.2-0.2 9.8
2017-Nov-19 17:00N 44°24' W 075°54'7 7.4 290 / 13 -0.1-0.010.3
2017-Nov-19 16:00N 44°18' W 076°00'1010.5 310 / 19998.4 -0.1-0.010.4
2017-Nov-19 15:00N 44°12' W 076°12'14713.3 300 / 13997.9 -0.4-0.210.6
2017-Nov-19 04:00N 43°24' W 079°24'1313.1 340 / 21985.4 6.0 6.4 6.9
2017-Nov-19 03:00N 43°24' W 079°42'0 0.0 350 / 11986.4 7.2 7.6
2017-Nov-19 02:00N 43°24' W 079°42'0 0.0 350 / 8987.7 7.2 7.6
2017-Nov-19 01:00N 43°24' W 079°42'0 0.0 020 / 7988.4 6.4 6.8
2017-Nov-19 00:00N 43°24' W 079°42'0 0.0 080 / 9989.6 6.8 7.2
2017-Nov-18 23:00N 43°24' W 079°42'0 0.0 090 / 10990.5 7.1 7.5
2017-Nov-18 22:00N 43°24' W 079°42'0 0.0 100 / 6992.2 7.3 7.7
2017-Nov-18 21:00N 43°24' W 079°42'0 0.0 130 / 7993.0 7.6 8.0
2017-Nov-18 20:00N 43°24' W 079°42'0 0.0 180 / 7993.6 8.4 8.7
2017-Nov-18 18:00N 43°24' W 079°42'0 0.0 230 / 6997.0 8.9 9.3
2017-Nov-18 17:00N 43°24' W 079°42'0 0.0 210 / 6997.6 7.8 8.1
2017-Nov-18 16:00N 43°24' W 079°42'0 0.0 030 / 1998.8 5.7 6.0
2017-Nov-18 15:00N 43°24' W 079°42'0 0.0 030 / 31000.0 5.1 5.3
2017-Nov-18 14:00N 43°24' W 079°42'0 0.0 270 / 11000.9 5.9 6.1
2017-Nov-18 13:00N 43°24' W 079°42'0 0.0 080 / 11001.0 4.9 5.0
2017-Nov-18 12:00N 43°24' W 079°42'0 0.0 080 / 21001.9 4.3 4.4
2017-Nov-18 11:00N 43°24' W 079°42'0 0.0 170 / 41003.4 4.9 4.9
2017-Nov-18 10:00N 43°24' W 079°42'0 0.0 110 / 81004.5 4.9 4.9
2017-Nov-18 09:00N 43°24' W 079°42'0 0.0 100 / 51006.1 5.0 4.9
2017-Nov-18 08:00N 43°24' W 079°42'0 0.0 100 / 41007.2 4.9 4.9
2017-Nov-18 07:00N 43°24' W 079°42'0 0.0 120 / 81007.7 4.7 4.7
2017-Nov-18 06:00N 43°24' W 079°42'0 0.0 120 / 101009.2 4.0 4.0
2017-Nov-18 05:00N 43°24' W 079°42'0 0.0 110 / 61011.5 3.5 3.5
2017-Nov-18 04:00N 43°24' W 079°42'0 0.0 120 / 81012.7 3.5 3.4
2017-Nov-18 03:00N 43°24' W 079°42'0 0.0 110 / 101014.2 3.3 3.3
2017-Nov-18 02:00N 43°24' W 079°42'0 0.0 120 / 101015.6 3.4 3.3
2017-Nov-18 01:00N 43°24' W 079°42'0 0.0 120 / 101016.6 3.2 3.1
2017-Nov-18 00:00N 43°24' W 079°42'0 0.0 150 / 71017.5 2.8 2.6
2017-Nov-17 23:00N 43°24' W 079°42'0 0.0 160 / 71018.8 2.8 2.6
2017-Nov-17 22:00N 43°24' W 079°42'0 0.0 170 / 71019.6 2.5 2.2
2017-Nov-17 21:00N 43°24' W 079°42'0 0.0 180 / 61020.7 2.0 1.0
2017-Nov-17 19:00N 43°24' W 079°42'0 0.0 170 / 51022.7 1.8 0.7
2017-Nov-17 18:00N 43°24' W 079°42'0 0.0 190 / 51023.7 0.7-0.1
2017-Nov-17 17:00N 43°24' W 079°42'4 4.4 170 / 61024.5 0.7-0.1
2017-Nov-17 16:00N 43°24' W 079°36'1313.1 240 / 61025.5 -0.5-1.3 7.0
2017-Nov-17 15:00N 43°24' W 079°18'1414.4 340 / 81025.9 -1.0-1.4 8.9
2017-Nov-17 14:00N 43°30' W 079°00'1313.1 340 / 91026.0 -1.0-1.8 8.6
2017-Nov-17 13:00N 43°30' W 078°42'1414.4 340 / 141025.4 -0.9-1.710.8
2017-Nov-17 12:00N 43°36' W 078°24'1313.0 330 / 191024.1 -1.0-2.5 8.2
2017-Nov-17 11:00N 43°36' W 078°06'4113.6 330 / 241022.8 -1.0-2.6 8.8
2017-Nov-17 08:00N 43°48' W 077°12'3913.0 330 / 241019.3 0.7 0.511.4
2017-Nov-17 05:00N 44°06' W 076°24'1414.2 320 / 191015.9 1.5 1.411.3
2017-Nov-17 04:00N 44°12' W 076°06'1010.5 320 / 241014.4 1.9 1.811.0
2017-Nov-17 03:00N 44°18' W 075°54'7 7.4 310 / 11 2.3 2.111.0
2017-Nov-17 02:00N 44°24' W 075°48'1312.7 310 / 19 2.5 2.410.6
2017-Nov-17 01:00N 44°36' W 075°42'1010.4 310 / 17 2.6 2.510.5
2017-Nov-17 00:00N 44°42' W 075°30'7 7.4 300 / 20 3.4 3.410.6
2017-Nov-16 23:00N 44°48' W 075°24'4 4.3 290 / 18 3.5 3.510.5
2017-Nov-16 22:00N 44°48' W 075°18'18 9.0 280 / 17 3.9 3.910.7
2017-Nov-16 20:00N 44°54' W 074°54'4 4.3 230 / 15 7.2 7.310.3
2017-Nov-16 19:00N 44°54' W 074°48'0 0.0 220 / 10 7.2 7.2 9.3
2017-Nov-16 18:00N 44°54' W 074°48'0 0.0 230 / 12 7.5 7.5 8.5
2017-Nov-16 17:00N 44°54' W 074°48'1010.4 220 / 14 8.4 8.310.3
2017-Nov-16 16:00N 45°00' W 074°36'7 7.3 230 / 21 9.3 9.210.4
2017-Nov-16 15:00N 45°06' W 074°30'1112.2 210 / 18 9.1 9.010.2
2017-Nov-16 14:06N 45°13' W 074°18'1 6.2
2017-Nov-16 14:00N 45°12' W 074°18'419.6 180 / 16 8.4 8.410.1
2017-Nov-16 13:49N 45°14' W 074°14'3 9.6
2017-Nov-16 13:30N 45°14' W 074°09'3 6.1
2017-Nov-16 13:00N 45°12' W 074°06'372.5 210 / 12 7.7 7.710.0
2017-Nov-16 12:57N 45°13' W 074°03'4 8.4
2017-Nov-16 12:30N 45°15' W 073°58'3 6.9
2017-Nov-16 12:01N 45°18' W 073°56'170.4
2017-Nov-16 12:00N 45°18' W 073°54'1 2.3 140 / 11 4.5 4.510.1
2017-Nov-16 11:31N 45°18' W 073°56'1 1.4
2017-Nov-16 11:00N 45°19' W 073°55'178.4
2017-Nov-16 11:00N 45°18' W 073°54'1 3.1 130 / 10 4.2 4.2
2017-Nov-16 10:31N 45°19' W 073°55'3 6.9
2017-Nov-16 10:00N 45°21' W 073°51'3254.6
2017-Nov-16 10:00N 45°24' W 073°48'2 5.0 140 / 16 4.9 4.8 9.6
2017-Nov-16 09:30N 45°24' W 073°45'3 6.7
2017-Nov-16 09:00N 45°25' W 073°40'2128.5
2017-Nov-16 09:00N 45°24' W 073°42'4 8.8 150 / 8 4.8 4.7 8.6
2017-Nov-16 08:30N 45°24' W 073°36'1 2.7
2017-Nov-16 08:01N 45°24' W 073°34'189.3
2017-Nov-16 08:00N 45°24' W 073°36'2 3.4 180 / 18 5.4 4.3 8.6
2017-Nov-16 07:30N 45°24' W 073°34'1 2.0
2017-Nov-16 07:01N 45°24' W 073°32'2102.1
2017-Nov-16 07:00N 45°24' W 073°30'2 4.8 170 / 18 5.4 4.0 8.1
2017-Nov-16 06:29N 45°26' W 073°30'4 7.2
2017-Nov-16 06:00N 45°30' W 073°30'0 0.0 170 / 14 5.5 4.1 7.2
2017-Nov-16 05:00N 45°30' W 073°30'0 0.0 140 / 7 3.6 2.4 7.1
2017-Nov-16 04:00N 45°30' W 073°30'6 3.0 140 / 9 4.0 2.7 8.5
2017-Nov-16 02:00N 45°36' W 073°30'0 0.0 150 / 9 3.4 2.4
2017-Nov-16 01:00N 45°36' W 073°30'0 0.0 150 / 10 3.7 2.5
2017-Nov-16 00:00N 45°36' W 073°30'0 0.0 110 / 8 3.5 2.0
2017-Nov-15 23:00N 45°36' W 073°30'0 0.0 090 / 6 4.2 2.9
2017-Nov-15 22:00N 45°36' W 073°30'0 0.0 090 / 5 5.0 3.6
2017-Nov-15 21:00N 45°36' W 073°30'0 0.0 120 / 6 5.7 3.8
2017-Nov-15 20:00N 45°36' W 073°30'0 0.0 140 / 10 6.2 4.4
2017-Nov-15 19:00N 45°36' W 073°30'0 0.0 160 / 7 5.8 4.7
2017-Nov-15 18:00N 45°36' W 073°30'0 0.0 110 / 4 5.9 5.3
2017-Nov-15 17:00N 45°36' W 073°30'0 0.0 180 / 2 5.0 4.6
2017-Nov-15 16:00N 45°36' W 073°30'0 0.0 080 / 2 4.5 4.5
2017-Nov-15 15:00N 45°36' W 073°30'0 0.0 080 / 2 3.6 3.6
2017-Nov-15 14:00N 45°36' W 073°30'0 0.0 150 / 3 1.2 1.2
2017-Nov-15 13:00N 45°36' W 073°30'0 0.0 170 / 4 -0.0-0.0
2017-Nov-15 12:00N 45°36' W 073°30'0 0.0 120 / 4 -1.7-1.7
2017-Nov-15 11:00N 45°36' W 073°30'0 0.0 070 / 4 -0.6-0.6
2017-Nov-15 10:00N 45°36' W 073°30'0 0.0 360 / 3 -0.7-0.7
2017-Nov-15 09:00N 45°36' W 073°30'0 0.0 360 / 5 -0.8-0.8
2017-Nov-15 08:00N 45°36' W 073°30'0 0.0 030 / 1 -0.2-0.3
2017-Nov-15 07:00N 45°36' W 073°30'0 0.0 360 / 3 0.6 0.6
2017-Nov-15 06:00N 45°36' W 073°30'0 0.0 360 / 3 0.4 0.3
2017-Nov-15 05:00N 45°36' W 073°30'0 0.0 350 / 2 2.2 2.1
2017-Nov-15 03:00N 45°36' W 073°30'0 0.0 050 / 2 2.9 2.6
2017-Nov-15 02:00N 45°36' W 073°30'0 0.0 070 / 5 2.0 1.9
2017-Nov-15 01:00N 45°36' W 073°30'0 0.0 070 / 6 2.2 2.0
2017-Nov-15 00:00N 45°36' W 073°30'0 0.0 050 / 4 3.9 3.3
2017-Nov-14 23:00N 45°36' W 073°30'0 0.0 050 / 2 4.7 2.9
2017-Nov-14 22:00N 45°36' W 073°30'0 0.0 050 / 3 4.8 3.8
2017-Nov-14 21:00N 45°36' W 073°30'0 0.0 050 / 2 4.6 3.4
2017-Nov-14 20:00N 45°36' W 073°30'0 0.0 050 / 2 4.4 3.0
2017-Nov-14 19:00N 45°36' W 073°30'0 0.0 010 / 3 3.8 3.3
2017-Nov-14 18:00N 45°36' W 073°30'0 0.0 020 / 3 4.2 3.9
2017-Nov-14 17:00N 45°36' W 073°30'0 0.0 020 / 3 3.4 3.3
2017-Nov-14 16:00N 45°36' W 073°30'0 0.0 050 / 3 3.0 2.8
2017-Nov-14 15:00N 45°36' W 073°30'0 0.0 060 / 6 2.0 1.7
2017-Nov-14 13:00N 45°36' W 073°30'0 0.0 350 / 3 0.8 0.7
2017-Nov-14 12:00N 45°36' W 073°30'0 0.0 340 / 3 0.5 0.4
2017-Nov-14 11:00N 45°36' W 073°30'0 0.0 350 / 4 0.6 0.4
2017-Nov-14 09:00N 45°36' W 073°30'0 0.0 360 / 4 0.8 0.5
2017-Nov-14 08:00N 45°36' W 073°30'0 0.0 360 / 2 0.6 0.3
2017-Nov-14 07:00N 45°36' W 073°30'   360 / 3 0.5 0.2
Track history (hours):
 
Tides and Currents Weather Stations Pressure Air Temp Water Temp Dewpoint Dewpoint Depression Visibility Wind Speed Wind Dir Waves Ship Positions

Sarah Desgagnes

Last reported at 2017-Nov-24 07:00 UTC. Time now 2017-Nov-24 07:35 UTC.
Position N 43°24' W 079°42'.

Length 147 m; draft 7.9 m.

Type: Ship. MMSI: 316012308.

Wind from 240 at 8 knots

Barometer 1013.8 mb
Air temperature 3.7 ° C
Dewpoint 3.2 ° C

Date/timePositionNaut miles runAvg speedWind from/ knotsBaromVisibWave heightAir tempDewpointWater temp
2017-Nov-24 07:00N 43°24' W 079°42'0 0.0 240 / 81013.8 3.7 3.2
2017-Nov-24 06:00N 43°24' W 079°42'0 0.0 250 / 91014.2 3.8 3.0
2017-Nov-24 05:00N 43°24' W 079°42'0 0.0 250 / 141014.1 4.1 3.2
2017-Nov-24 04:00N 43°24' W 079°42'17 8.7 260 / 151014.3 4.1 3.4
2017-Nov-24 02:00N 43°24' W 079°18'1818.4 270 / 201013.1 4.4 4.3 7.4
2017-Nov-24 01:00N 43°30' W 078°54'4912.3 240 / 231012.7 4.9 4.8 9.2
2017-Nov-23 21:00N 43°42' W 077°48'1313.0 230 / 171013.2 3.2 3.1 8.7
2017-Nov-23 20:00N 43°42' W 077°30'1414.3 240 / 191013.6 3.1 2.910.3
2017-Nov-23 19:00N 43°48' W 077°12'1313.0 240 / 211014.2 2.8 2.711.0
2017-Nov-23 18:00N 43°48' W 076°54'1110.5 240 / 211014.8 2.9 2.810.4
2017-Nov-23 17:00N 43°54' W 076°42'1817.7 250 / 151016.4 2.7 2.610.8
2017-Nov-23 16:00N 44°06' W 076°24'1010.5 220 / 131017.5 1.0 1.010.2
2017-Nov-23 15:00N 44°12' W 076°12'1010.5 170 / 81019.2 -2.8-2.9 9.6
2017-Nov-23 14:00N 44°18' W 076°00'7 7.4 160 / 51020.0 -3.8-3.9 9.6
2017-Nov-23 13:00N 44°24' W 075°54'1010.5 170 / 7 -4.7-4.8 9.5
2017-Nov-23 12:00N 44°30' W 075°42'1312.7 180 / 7 -5.3-5.5 9.0
2017-Nov-23 11:00N 44°42' W 075°36'1010.4 170 / 8 -5.7-5.8 9.0
2017-Nov-23 10:00N 44°48' W 075°24'14 7.1 270 / 6 -5.9-6.0 9.1
2017-Nov-23 08:00N 44°54' W 075°06'9 8.5 290 / 9 -6.4-6.5 8.8
2017-Nov-23 07:00N 44°54' W 074°54'4 4.3 300 / 9 -5.7-5.9 8.2
2017-Nov-23 06:00N 44°54' W 074°48'0 0.0 290 / 8 -5.7-6.1 6.8
2017-Nov-23 05:00N 44°54' W 074°48'0 0.0 300 / 9 -5.1-5.5 6.3
2017-Nov-23 04:00N 44°54' W 074°48'7 7.4 290 / 7 -4.9-5.8 4.8
2017-Nov-23 03:00N 45°00' W 074°42'1010.4 310 / 12 -4.3-5.2 8.8
2017-Nov-23 02:00N 45°06' W 074°30'7 7.3 290 / 10 -3.5-3.6 8.8
2017-Nov-23 01:00N 45°12' W 074°24'511.3 300 / 18 -2.9-3.0 8.6
2017-Nov-23 00:35N 45°13' W 074°18'111.9
2017-Nov-23 00:30N 45°13' W 074°16'510.5
2017-Nov-23 00:00N 45°14' W 074°09'31670.6
2017-Nov-23 00:00N 45°12' W 074°06'2 4.6 300 / 18 -2.4-2.5 8.5
2017-Nov-22 23:30N 45°13' W 074°03'4 8.5
2017-Nov-22 23:00N 45°15' W 073°58'4305.1
2017-Nov-22 23:00N 45°18' W 073°54'1 2.4 280 / 15 -1.1-1.2 8.5
2017-Nov-22 22:30N 45°18' W 073°56'0 0.7
2017-Nov-22 22:00N 45°18' W 073°55'168.8
2017-Nov-22 22:00N 45°18' W 073°54'1 2.6 280 / 8 0.1-0.0 8.1
2017-Nov-22 21:30N 45°19' W 073°55'1 1.6
2017-Nov-22 21:00N 45°20' W 073°55'2108.3
2017-Nov-22 21:00N 45°18' W 073°54'510.3 300 / 20 1.0 1.0 7.3
2017-Nov-22 20:30N 45°22' W 073°50'510.2
2017-Nov-22 20:00N 45°24' W 073°43'167.2
2017-Nov-22 20:00N 45°24' W 073°42'2 4.3 300 / 17 2.1 2.2 6.4
2017-Nov-22 19:30N 45°24' W 073°39'2 4.3
2017-Nov-22 19:00N 45°24' W 073°36'4 4.2 280 / 11 3.1 3.1 5.9
2017-Nov-22 18:00N 45°24' W 073°30'6 6.0 270 / 13 2.9 3.0 5.5
2017-Nov-22 17:00N 45°30' W 073°30'0 0.0 250 / 8 3.1 3.2 6.0
2017-Nov-22 16:00N 45°30' W 073°30'6 6.0 260 / 7 2.7 2.8 5.6
2017-Nov-22 15:00N 45°36' W 073°30'0 0.0 260 / 9 2.8 2.9
2017-Nov-22 14:00N 45°36' W 073°30'0 0.0 270 / 6 2.6 2.7
2017-Nov-22 13:00N 45°36' W 073°30'0 0.0 270 / 8 2.8 2.9
2017-Nov-22 12:00N 45°36' W 073°30'0 0.0 280 / 7 3.8 3.8
2017-Nov-22 11:00N 45°36' W 073°30'0 0.0 260 / 6 4.8 4.9
2017-Nov-22 09:00N 45°36' W 073°30'0 0.0 250 / 4 6.1 6.1
2017-Nov-22 08:00N 45°36' W 073°30'0 0.0 210 / 4 6.9 6.8
2017-Nov-22 07:00N 45°36' W 073°30'0 0.0 280 / 3 7.4 6.9
2017-Nov-22 06:00N 45°36' W 073°30'0 0.0 230 / 6 9.4 7.0
2017-Nov-22 05:00N 45°36' W 073°30'0 0.0 220 / 8 9.7 6.6
2017-Nov-22 04:00N 45°36' W 073°30'0 0.0 180 / 10 8.5 5.8
2017-Nov-22 03:00N 45°36' W 073°30'0 0.0 180 / 9 7.4 5.7
2017-Nov-22 02:00N 45°36' W 073°30'0 0.0 170 / 11 7.1 5.7
2017-Nov-22 01:00N 45°36' W 073°30'0 0.0 180 / 11 7.6 5.9
2017-Nov-22 00:00N 45°36' W 073°30'0 0.0 190 / 10 7.9 5.9
2017-Nov-21 23:00N 45°36' W 073°30'0 0.0 190 / 9 8.0 6.8
2017-Nov-21 22:00N 45°36' W 073°30'0 0.0 180 / 10 8.7 7.5
2017-Nov-21 21:00N 45°36' W 073°30'0 0.0 180 / 7 8.6 7.6
2017-Nov-21 20:00N 45°36' W 073°30'0 0.0 180 / 10 8.6 7.8
2017-Nov-21 19:00N 45°36' W 073°30'0 0.0 180 / 10 8.0 7.3
2017-Nov-21 18:00N 45°36' W 073°30'0 0.0 190 / 12 7.4 7.3
2017-Nov-21 17:00N 45°36' W 073°30'0 0.0 180 / 14 6.6 6.5
2017-Nov-21 16:00N 45°36' W 073°30'0 0.0 190 / 12 5.7 5.6
2017-Nov-21 15:00N 45°36' W 073°30'0 0.0 180 / 14 5.0 5.0
2017-Nov-21 14:00N 45°36' W 073°30'0 0.0 180 / 12 3.8 3.8
2017-Nov-21 13:00N 45°36' W 073°30'0 0.0 160 / 10 1.4 1.5
2017-Nov-21 12:00N 45°36' W 073°30'0 0.0 070 / 4 -2.9-2.9
2017-Nov-21 10:00N 45°36' W 073°30'0 0.0 070 / 6 -3.5-3.6
2017-Nov-21 09:00N 45°36' W 073°30'0 0.0 100 / 6 -3.9-4.0
2017-Nov-21 08:00N 45°36' W 073°30'0 0.0 110 / 5 -4.2-4.2
2017-Nov-21 07:00N 45°36' W 073°30'0 0.0 120 / 6 -4.9-4.9
2017-Nov-21 06:00N 45°36' W 073°30'0 0.0 150 / 9 -5.1-5.1
2017-Nov-21 05:00N 45°36' W 073°30'0 0.0 160 / 7 -5.8-5.8
2017-Nov-21 04:00N 45°36' W 073°30'0 0.0 150 / 5 -6.4-6.4
2017-Nov-21 03:00N 45°36' W 073°30'0 0.0 150 / 7 -6.2-6.4
2017-Nov-21 02:00N 45°36' W 073°30'0 0.0 130 / 6 -5.9-6.3
2017-Nov-21 01:00N 45°36' W 073°30'0 0.0 210 / 3 -5.5-7.4
2017-Nov-21 00:00N 45°36' W 073°30'6 6.0 260 / 3 -5.3-7.0 6.8
2017-Nov-20 23:00N 45°30' W 073°30'0 0.0 270 / 7 -4.9-6.4
2017-Nov-20 22:00N 45°30' W 073°30'7 7.3 290 / 8 -5.0-5.6 5.6
2017-Nov-20 21:00N 45°24' W 073°36'0 0.0 310 / 7 -5.9-6.1
2017-Nov-20 20:00N 45°24' W 073°36'8 8.4 310 / 8 -5.4-5.6 5.8
2017-Nov-20 19:00N 45°24' W 073°48'7 7.3 300 / 11 -5.7-5.9 7.4
2017-Nov-20 18:00N 45°18' W 073°54'0 0.0 280 / 13 -5.6-5.9
2017-Nov-20 17:00N 45°18' W 073°54'0 0.0 310 / 6 -5.7-5.9 8.0
2017-Nov-20 16:00N 45°18' W 073°54'1010.4 270 / 13 -5.8-6.0 7.9
2017-Nov-20 15:00N 45°12' W 074°06'8 8.5 270 / 16 -4.5-4.8 7.9
2017-Nov-20 14:00N 45°12' W 074°18'1010.4 260 / 24 -5.9-6.0 8.0
2017-Nov-20 13:00N 45°06' W 074°30'17 8.7 260 / 12 -6.2-6.3 8.6
2017-Nov-20 11:00N 44°54' W 074°48'4 4.3 280 / 14 -6.5-6.6 6.4
2017-Nov-20 10:00N 44°54' W 074°54'0 0.0 270 / 13 -5.0-5.1
2017-Nov-20 09:00N 44°54' W 074°54'4 4.3 290 / 13 -6.0-6.0 8.6
2017-Nov-20 08:00N 44°54' W 075°00'0 0.0 310 / 10 -5.3-5.3
2017-Nov-20 07:00N 44°54' W 075°00'0 0.0 310 / 14 -4.8-4.8
2017-Nov-20 06:00N 44°54' W 075°00'0 0.0 310 / 14 -3.4-3.3
2017-Nov-20 05:00N 44°54' W 075°00'0 0.0 280 / 13 -2.7-2.7
2017-Nov-20 04:00N 44°54' W 075°00'0 0.0 290 / 10 -2.5-2.5
2017-Nov-20 03:00N 44°54' W 075°00'0 0.0 290 / 10 -2.4-2.4
2017-Nov-20 02:00N 44°54' W 075°00'0 0.0 300 / 13 -2.3-2.3
2017-Nov-20 01:00N 44°54' W 075°00'0 0.0 290 / 15 -1.7-1.7
2017-Nov-20 00:00N 44°54' W 075°00'0 0.0 290 / 17 -1.3-1.3
2017-Nov-19 23:00N 44°54' W 075°00'9 8.5 280 / 16 -0.9-0.8 9.6
2017-Nov-19 22:00N 44°54' W 075°12'7 7.4 280 / 11 -0.7-0.6 9.6
2017-Nov-19 21:00N 44°48' W 075°18'0 0.0 280 / 8 -1.0-0.9 9.2
2017-Nov-19 20:00N 44°48' W 075°18'1010.4 270 / 8 -0.6-0.5 9.8
2017-Nov-19 19:00N 44°42' W 075°30'2512.4 260 / 10 -0.2-0.2 9.8
2017-Nov-19 17:00N 44°24' W 075°54'7 7.4 290 / 13 -0.1-0.010.3
2017-Nov-19 16:00N 44°18' W 076°00'1010.5 310 / 19998.4 -0.1-0.010.4
2017-Nov-19 15:00N 44°12' W 076°12'14713.3 300 / 13997.9 -0.4-0.210.6
2017-Nov-19 04:00N 43°24' W 079°24'1313.1 340 / 21985.4 6.0 6.4 6.9
2017-Nov-19 03:00N 43°24' W 079°42'0 0.0 350 / 11986.4 7.2 7.6
2017-Nov-19 02:00N 43°24' W 079°42'0 0.0 350 / 8987.7 7.2 7.6
2017-Nov-19 01:00N 43°24' W 079°42'0 0.0 020 / 7988.4 6.4 6.8
2017-Nov-19 00:00N 43°24' W 079°42'0 0.0 080 / 9989.6 6.8 7.2
2017-Nov-18 23:00N 43°24' W 079°42'0 0.0 090 / 10990.5 7.1 7.5
2017-Nov-18 22:00N 43°24' W 079°42'0 0.0 100 / 6992.2 7.3 7.7
2017-Nov-18 21:00N 43°24' W 079°42'0 0.0 130 / 7993.0 7.6 8.0
2017-Nov-18 20:00N 43°24' W 079°42'0 0.0 180 / 7993.6 8.4 8.7
2017-Nov-18 18:00N 43°24' W 079°42'0 0.0 230 / 6997.0 8.9 9.3
2017-Nov-18 17:00N 43°24' W 079°42'0 0.0 210 / 6997.6 7.8 8.1
2017-Nov-18 16:00N 43°24' W 079°42'0 0.0 030 / 1998.8 5.7 6.0
2017-Nov-18 15:00N 43°24' W 079°42'0 0.0 030 / 31000.0 5.1 5.3
2017-Nov-18 14:00N 43°24' W 079°42'0 0.0 270 / 11000.9 5.9 6.1
2017-Nov-18 13:00N 43°24' W 079°42'0 0.0 080 / 11001.0 4.9 5.0
2017-Nov-18 12:00N 43°24' W 079°42'0 0.0 080 / 21001.9 4.3 4.4
2017-Nov-18 11:00N 43°24' W 079°42'0 0.0 170 / 41003.4 4.9 4.9
2017-Nov-18 10:00N 43°24' W 079°42'0 0.0 110 / 81004.5 4.9 4.9
2017-Nov-18 09:00N 43°24' W 079°42'0 0.0 100 / 51006.1 5.0 4.9
2017-Nov-18 08:00N 43°24' W 079°42'0 0.0 100 / 41007.2 4.9 4.9
2017-Nov-18 07:00N 43°24' W 079°42'0 0.0 120 / 81007.7 4.7 4.7
2017-Nov-18 06:00N 43°24' W 079°42'0 0.0 120 / 101009.2 4.0 4.0
2017-Nov-18 05:00N 43°24' W 079°42'0 0.0 110 / 61011.5 3.5 3.5
2017-Nov-18 04:00N 43°24' W 079°42'0 0.0 120 / 81012.7 3.5 3.4
2017-Nov-18 03:00N 43°24' W 079°42'0 0.0 110 / 101014.2 3.3 3.3
2017-Nov-18 02:00N 43°24' W 079°42'0 0.0 120 / 101015.6 3.4 3.3
2017-Nov-18 01:00N 43°24' W 079°42'0 0.0 120 / 101016.6 3.2 3.1
2017-Nov-18 00:00N 43°24' W 079°42'0 0.0 150 / 71017.5 2.8 2.6
2017-Nov-17 23:00N 43°24' W 079°42'0 0.0 160 / 71018.8 2.8 2.6
2017-Nov-17 22:00N 43°24' W 079°42'0 0.0 170 / 71019.6 2.5 2.2
2017-Nov-17 21:00N 43°24' W 079°42'0 0.0 180 / 61020.7 2.0 1.0
2017-Nov-17 19:00N 43°24' W 079°42'0 0.0 170 / 51022.7 1.8 0.7
2017-Nov-17 18:00N 43°24' W 079°42'0 0.0 190 / 51023.7 0.7-0.1
2017-Nov-17 17:00N 43°24' W 079°42'4 4.4 170 / 61024.5 0.7-0.1
2017-Nov-17 16:00N 43°24' W 079°36'1313.1 240 / 61025.5 -0.5-1.3 7.0
2017-Nov-17 15:00N 43°24' W 079°18'1414.4 340 / 81025.9 -1.0-1.4 8.9
2017-Nov-17 14:00N 43°30' W 079°00'1313.1 340 / 91026.0 -1.0-1.8 8.6
2017-Nov-17 13:00N 43°30' W 078°42'1414.4 340 / 141025.4 -0.9-1.710.8
2017-Nov-17 12:00N 43°36' W 078°24'1313.0 330 / 191024.1 -1.0-2.5 8.2
2017-Nov-17 11:00N 43°36' W 078°06'4113.6 330 / 241022.8 -1.0-2.6 8.8
2017-Nov-17 08:00N 43°48' W 077°12'3913.0 330 / 241019.3 0.7 0.511.4
2017-Nov-17 05:00N 44°06' W 076°24'1414.2 320 / 191015.9 1.5 1.411.3
2017-Nov-17 04:00N 44°12' W 076°06'1010.5 320 / 241014.4 1.9 1.811.0
2017-Nov-17 03:00N 44°18' W 075°54'7 7.4 310 / 11 2.3 2.111.0
2017-Nov-17 02:00N 44°24' W 075°48'1312.7 310 / 19 2.5 2.410.6
2017-Nov-17 01:00N 44°36' W 075°42'1010.4 310 / 17 2.6 2.510.5
2017-Nov-17 00:00N 44°42' W 075°30'7 7.4 300 / 20 3.4 3.410.6
2017-Nov-16 23:00N 44°48' W 075°24'4 4.3 290 / 18 3.5 3.510.5
2017-Nov-16 22:00N 44°48' W 075°18'18 9.0 280 / 17 3.9 3.910.7
2017-Nov-16 20:00N 44°54' W 074°54'4 4.3 230 / 15 7.2 7.310.3
2017-Nov-16 19:00N 44°54' W 074°48'0 0.0 220 / 10 7.2 7.2 9.3
2017-Nov-16 18:00N 44°54' W 074°48'0 0.0 230 / 12 7.5 7.5 8.5
2017-Nov-16 17:00N 44°54' W 074°48'1010.4 220 / 14 8.4 8.310.3
2017-Nov-16 16:00N 45°00' W 074°36'7 7.3 230 / 21 9.3 9.210.4
2017-Nov-16 15:00N 45°06' W 074°30'1112.2 210 / 18 9.1 9.010.2
2017-Nov-16 14:06N 45°13' W 074°18'1 6.2
2017-Nov-16 14:00N 45°12' W 074°18'419.6 180 / 16 8.4 8.410.1
2017-Nov-16 13:49N 45°14' W 074°14'3 9.6
2017-Nov-16 13:30N 45°14' W 074°09'3 6.1
2017-Nov-16 13:00N 45°12' W 074°06'372.5 210 / 12 7.7 7.710.0
2017-Nov-16 12:57N 45°13' W 074°03'4 8.4
2017-Nov-16 12:30N 45°15' W 073°58'3 6.9
2017-Nov-16 12:01N 45°18' W 073°56'170.4
2017-Nov-16 12:00N 45°18' W 073°54'1 2.3 140 / 11 4.5 4.510.1
2017-Nov-16 11:31N 45°18' W 073°56'1 1.4
2017-Nov-16 11:00N 45°19' W 073°55'178.4
2017-Nov-16 11:00N 45°18' W 073°54'1 3.1 130 / 10 4.2 4.2
2017-Nov-16 10:31N 45°19' W 073°55'3 6.9
2017-Nov-16 10:00N 45°21' W 073°51'3254.6
2017-Nov-16 10:00N 45°24' W 073°48'2 5.0 140 / 16 4.9 4.8 9.6
2017-Nov-16 09:30N 45°24' W 073°45'3 6.7
2017-Nov-16 09:00N 45°25' W 073°40'2128.5
2017-Nov-16 09:00N 45°24' W 073°42'4 8.8 150 / 8 4.8 4.7 8.6
2017-Nov-16 08:30N 45°24' W 073°36'1 2.7
2017-Nov-16 08:01N 45°24' W 073°34'189.3
2017-Nov-16 08:00N 45°24' W 073°36'2 3.4 180 / 18 5.4 4.3 8.6
2017-Nov-16 07:30N 45°24' W 073°34'1 2.0
2017-Nov-16 07:01N 45°24' W 073°32'2102.1
2017-Nov-16 07:00N 45°24' W 073°30'2 4.8 170 / 18 5.4 4.0 8.1
2017-Nov-16 06:29N 45°26' W 073°30'4 7.2
2017-Nov-16 06:00N 45°30' W 073°30'0 0.0 170 / 14 5.5 4.1 7.2
2017-Nov-16 05:00N 45°30' W 073°30'0 0.0 140 / 7 3.6 2.4 7.1
2017-Nov-16 04:00N 45°30' W 073°30'6 3.0 140 / 9 4.0 2.7 8.5
2017-Nov-16 02:00N 45°36' W 073°30'0 0.0 150 / 9 3.4 2.4
2017-Nov-16 01:00N 45°36' W 073°30'0 0.0 150 / 10 3.7 2.5
2017-Nov-16 00:00N 45°36' W 073°30'0 0.0 110 / 8 3.5 2.0
2017-Nov-15 23:00N 45°36' W 073°30'0 0.0 090 / 6 4.2 2.9
2017-Nov-15 22:00N 45°36' W 073°30'0 0.0 090 / 5 5.0 3.6
2017-Nov-15 21:00N 45°36' W 073°30'0 0.0 120 / 6 5.7 3.8
2017-Nov-15 20:00N 45°36' W 073°30'0 0.0 140 / 10 6.2 4.4
2017-Nov-15 19:00N 45°36' W 073°30'0 0.0 160 / 7 5.8 4.7
2017-Nov-15 18:00N 45°36' W 073°30'0 0.0 110 / 4 5.9 5.3
2017-Nov-15 17:00N 45°36' W 073°30'0 0.0 180 / 2 5.0 4.6
2017-Nov-15 16:00N 45°36' W 073°30'0 0.0 080 / 2 4.5 4.5
2017-Nov-15 15:00N 45°36' W 073°30'0 0.0 080 / 2 3.6 3.6
2017-Nov-15 14:00N 45°36' W 073°30'0 0.0 150 / 3 1.2 1.2
2017-Nov-15 13:00N 45°36' W 073°30'0 0.0 170 / 4 -0.0-0.0
2017-Nov-15 12:00N 45°36' W 073°30'0 0.0 120 / 4 -1.7-1.7
2017-Nov-15 11:00N 45°36' W 073°30'0 0.0 070 / 4 -0.6-0.6
2017-Nov-15 10:00N 45°36' W 073°30'0 0.0 360 / 3 -0.7-0.7
2017-Nov-15 09:00N 45°36' W 073°30'0 0.0 360 / 5 -0.8-0.8
2017-Nov-15 08:00N 45°36' W 073°30'0 0.0 030 / 1 -0.2-0.3
2017-Nov-15 07:00N 45°36' W 073°30'0 0.0 360 / 3 0.6 0.6
2017-Nov-15 06:00N 45°36' W 073°30'0 0.0 360 / 3 0.4 0.3
2017-Nov-15 05:00N 45°36' W 073°30'0 0.0 350 / 2 2.2 2.1
2017-Nov-15 03:00N 45°36' W 073°30'0 0.0 050 / 2 2.9 2.6
2017-Nov-15 02:00N 45°36' W 073°30'0 0.0 070 / 5 2.0 1.9
2017-Nov-15 01:00N 45°36' W 073°30'0 0.0 070 / 6 2.2 2.0
2017-Nov-15 00:00N 45°36' W 073°30'0 0.0 050 / 4 3.9 3.3
2017-Nov-14 23:00N 45°36' W 073°30'0 0.0 050 / 2 4.7 2.9
2017-Nov-14 22:00N 45°36' W 073°30'0 0.0 050 / 3 4.8 3.8
2017-Nov-14 21:00N 45°36' W 073°30'0 0.0 050 / 2 4.6 3.4
2017-Nov-14 20:00N 45°36' W 073°30'0 0.0 050 / 2 4.4 3.0
2017-Nov-14 19:00N 45°36' W 073°30'0 0.0 010 / 3 3.8 3.3
2017-Nov-14 18:00N 45°36' W 073°30'0 0.0 020 / 3 4.2 3.9
2017-Nov-14 17:00N 45°36' W 073°30'0 0.0 020 / 3 3.4 3.3
2017-Nov-14 16:00N 45°36' W 073°30'0 0.0 050 / 3 3.0 2.8
2017-Nov-14 15:00N 45°36' W 073°30'0 0.0 060 / 6 2.0 1.7
2017-Nov-14 13:00N 45°36' W 073°30'0 0.0 350 / 3 0.8 0.7
2017-Nov-14 12:00N 45°36' W 073°30'0 0.0 340 / 3 0.5 0.4
2017-Nov-14 11:00N 45°36' W 073°30'0 0.0 350 / 4 0.6 0.4
2017-Nov-14 09:00N 45°36' W 073°30'0 0.0 360 / 4 0.8 0.5
2017-Nov-14 08:00N 45°36' W 073°30'0 0.0 360 / 2 0.6 0.3
2017-Nov-14 07:00N 45°36' W 073°30'   360 / 3 0.5 0.2

Dump ship's entire track history